N930DX KGPI-KGEG
Flight info
| Callsign | N930DX |
|---|---|
| Flight time | 0h 44m |
| Altitude | 22000 |
| Route | RIDDG2 RIDDG |
| Aircraft | TBM9/L-SDFGRWY/S |
Departure
| Time | 2026-05-08 11:36 |
|---|---|
| Airport | Glacier Park International Airport (KGPI) |
Arrival
| Time | 2026-05-08 12:20 |
|---|---|
| Airport | Spokane International Airport (KGEG) |
| Time | Latitude | Longitude | Altitude | Speed | Heading |
|---|---|---|---|---|---|
| 2026-05-08 11:18 | 48.30998 | -114.25138 | 2973 ft | 0 kts | 93° |
| 2026-05-08 11:28 | 48.30998 | -114.25132 | 2973 ft | 3 kts | 92° |
| 2026-05-08 11:29 | 48.30998 | -114.25076 | 2973 ft | 1 kts | 85° |
| 2026-05-08 11:29 | 48.31004 | -114.25067 | 2973 ft | 0 kts | 13° |
| 2026-05-08 11:29 | 48.31011 | -114.25066 | 2973 ft | 3 kts | 344° |
| 2026-05-08 11:30 | 48.31024 | -114.25144 | 2973 ft | 8 kts | 274° |
| 2026-05-08 11:30 | 48.31028 | -114.25242 | 2973 ft | 10 kts | 282° |
| 2026-05-08 11:30 | 48.31042 | -114.25307 | 2973 ft | 7 kts | 322° |
| 2026-05-08 11:30 | 48.31054 | -114.25316 | 2973 ft | 0 kts | 343° |
| 2026-05-08 11:31 | 48.31072 | -114.25314 | 2973 ft | 6 kts | 24° |
| 2026-05-08 11:31 | 48.31133 | -114.25252 | 2973 ft | 15 kts | 23° |
| 2026-05-08 11:31 | 48.31172 | -114.25208 | 2973 ft | 1 kts | 36° |
| 2026-05-08 11:31 | 48.31185 | -114.25197 | 2973 ft | 4 kts | 28° |
| 2026-05-08 11:32 | 48.31188 | -114.25195 | 2973 ft | 5 kts | 28° |
| 2026-05-08 11:32 | 48.31224 | -114.25167 | 2973 ft | 0 kts | 30° |
| 2026-05-08 11:32 | 48.31227 | -114.25164 | 2973 ft | 4 kts | 29° |
| 2026-05-08 11:33 | 48.31310 | -114.25069 | 2972 ft | 21 kts | 34° |
| 2026-05-08 11:33 | 48.31437 | -114.24935 | 2972 ft | 22 kts | 36° |
| 2026-05-08 11:33 | 48.31550 | -114.24821 | 2972 ft | 20 kts | 34° |
| 2026-05-08 11:33 | 48.31663 | -114.24701 | 2972 ft | 20 kts | 34° |
| 2026-05-08 11:34 | 48.31773 | -114.24585 | 2973 ft | 17 kts | 42° |
| 2026-05-08 11:34 | 48.31839 | -114.24551 | 2974 ft | 5 kts | 333° |
| 2026-05-08 11:34 | 48.31844 | -114.24556 | 2974 ft | 0 kts | 324° |
| 2026-05-08 11:34 | 48.31847 | -114.24559 | 2974 ft | 2 kts | 317° |
| 2026-05-08 11:35 | 48.31873 | -114.24617 | 2976 ft | 10 kts | 297° |
| 2026-05-08 11:35 | 48.31880 | -114.24649 | 2977 ft | 7 kts | 264° |
| 2026-05-08 11:35 | 48.31728 | -114.24834 | 2973 ft | 58 kts | 216° |
| 2026-05-08 11:35 | 48.31236 | -114.25359 | 3017 ft | 111 kts | 215° |
| 2026-05-08 11:36 | 48.30515 | -114.26131 | 3209 ft | 145 kts | 216° |
| 2026-05-08 11:36 | 48.29620 | -114.27136 | 3517 ft | 170 kts | 219° |
| 2026-05-08 11:36 | 48.28690 | -114.28342 | 3954 ft | 181 kts | 226° |
| 2026-05-08 11:36 | 48.28084 | -114.29974 | 4472 ft | 178 kts | 264° |
| 2026-05-08 11:37 | 48.27915 | -114.31810 | 4874 ft | 174 kts | 253° |
| 2026-05-08 11:37 | 48.27511 | -114.33372 | 5669 ft | 148 kts | 249° |
| 2026-05-08 11:37 | 48.27153 | -114.34911 | 5739 ft | 173 kts | 257° |
| 2026-05-08 11:37 | 48.26988 | -114.36717 | 6095 ft | 168 kts | 267° |
| 2026-05-08 11:38 | 48.26933 | -114.38442 | 6262 ft | 178 kts | 255° |
| 2026-05-08 11:38 | 48.26143 | -114.40005 | 6113 ft | 202 kts | 219° |
| 2026-05-08 11:38 | 48.24971 | -114.41280 | 5996 ft | 213 kts | 221° |
| 2026-05-08 11:38 | 48.23897 | -114.42843 | 5883 ft | 217 kts | 230° |
| 2026-05-08 11:39 | 48.22850 | -114.44484 | 5758 ft | 222 kts | 223° |
| 2026-05-08 11:39 | 48.21674 | -114.46007 | 5634 ft | 223 kts | 223° |
| 2026-05-08 11:39 | 48.20522 | -114.47583 | 5513 ft | 224 kts | 224° |
| 2026-05-08 11:39 | 48.19394 | -114.49180 | 5397 ft | 224 kts | 225° |
| 2026-05-08 11:40 | 48.18342 | -114.50864 | 5438 ft | 219 kts | 236° |
| 2026-05-08 11:40 | 48.17693 | -114.52889 | 5582 ft | 209 kts | 252° |
| 2026-05-08 11:40 | 48.17220 | -114.54905 | 5885 ft | 201 kts | 251° |
| 2026-05-08 11:40 | 48.16750 | -114.56838 | 6181 ft | 194 kts | 251° |
| 2026-05-08 11:41 | 48.16308 | -114.58702 | 6465 ft | 190 kts | 252° |
| 2026-05-08 11:41 | 48.15871 | -114.60556 | 6747 ft | 187 kts | 252° |
| 2026-05-08 11:41 | 48.15438 | -114.62387 | 7033 ft | 183 kts | 252° |
| 2026-05-08 11:41 | 48.15014 | -114.64183 | 7297 ft | 182 kts | 252° |
| 2026-05-08 11:42 | 48.14591 | -114.65957 | 7594 ft | 180 kts | 252° |
| 2026-05-08 11:42 | 48.14176 | -114.67712 | 7879 ft | 180 kts | 252° |
| 2026-05-08 11:42 | 48.13754 | -114.69494 | 8175 ft | 182 kts | 252° |
| 2026-05-08 11:42 | 48.13374 | -114.71306 | 8478 ft | 182 kts | 258° |
| 2026-05-08 11:43 | 48.13081 | -114.73134 | 8780 ft | 182 kts | 258° |
| 2026-05-08 11:43 | 48.12779 | -114.74969 | 9085 ft | 181 kts | 258° |
| 2026-05-08 11:43 | 48.12473 | -114.76804 | 9396 ft | 182 kts | 258° |
| 2026-05-08 11:43 | 48.12166 | -114.78652 | 9708 ft | 183 kts | 258° |
| 2026-05-08 11:44 | 48.11858 | -114.80505 | 9992 ft | 183 kts | 258° |
| 2026-05-08 11:44 | 48.11553 | -114.82336 | 10274 ft | 183 kts | 258° |
| 2026-05-08 11:44 | 48.11244 | -114.84196 | 10562 ft | 183 kts | 258° |
| 2026-05-08 11:44 | 48.10935 | -114.86050 | 10849 ft | 184 kts | 258° |
| 2026-05-08 11:45 | 48.10624 | -114.87908 | 11148 ft | 183 kts | 259° |
| 2026-05-08 11:45 | 48.10314 | -114.89766 | 11442 ft | 183 kts | 259° |
| 2026-05-08 11:45 | 48.10008 | -114.91596 | 11739 ft | 183 kts | 259° |
| 2026-05-08 11:45 | 48.09697 | -114.93451 | 12040 ft | 183 kts | 259° |
| 2026-05-08 11:46 | 48.09387 | -114.95304 | 12342 ft | 185 kts | 259° |
| 2026-05-08 11:46 | 48.09067 | -114.97216 | 12653 ft | 192 kts | 259° |
| 2026-05-08 11:46 | 48.08744 | -114.99148 | 12967 ft | 196 kts | 259° |
| 2026-05-08 11:46 | 48.08408 | -115.01156 | 13288 ft | 201 kts | 259° |
| 2026-05-08 11:47 | 48.08064 | -115.03201 | 13607 ft | 203 kts | 259° |
| 2026-05-08 11:47 | 48.07714 | -115.05272 | 13899 ft | 207 kts | 259° |
| 2026-05-08 11:47 | 48.07358 | -115.07381 | 14181 ft | 211 kts | 259° |
| 2026-05-08 11:47 | 48.06995 | -115.09540 | 14468 ft | 215 kts | 259° |
| 2026-05-08 11:48 | 48.06631 | -115.11700 | 14745 ft | 218 kts | 259° |
| 2026-05-08 11:48 | 48.06256 | -115.13908 | 15060 ft | 220 kts | 259° |
| 2026-05-08 11:48 | 48.05879 | -115.16129 | 15352 ft | 221 kts | 259° |
| 2026-05-08 11:48 | 48.05499 | -115.18368 | 15649 ft | 222 kts | 259° |
| 2026-05-08 11:49 | 48.05115 | -115.20622 | 15941 ft | 223 kts | 259° |
| 2026-05-08 11:49 | 48.04739 | -115.22840 | 16246 ft | 223 kts | 259° |
| 2026-05-08 11:49 | 48.04354 | -115.25096 | 16539 ft | 223 kts | 259° |
| 2026-05-08 11:49 | 48.03969 | -115.27347 | 16839 ft | 224 kts | 259° |
| 2026-05-08 11:50 | 48.03584 | -115.29604 | 17147 ft | 224 kts | 259° |
| 2026-05-08 11:50 | 48.03196 | -115.31869 | 17457 ft | 225 kts | 259° |
| 2026-05-08 11:50 | 48.02808 | -115.34133 | 17769 ft | 225 kts | 259° |
| 2026-05-08 11:50 | 48.02422 | -115.36377 | 18083 ft | 226 kts | 259° |
| 2026-05-08 11:51 | 48.02028 | -115.38674 | 18385 ft | 229 kts | 260° |
| 2026-05-08 11:51 | 48.01631 | -115.40988 | 18657 ft | 231 kts | 260° |
| 2026-05-08 11:51 | 48.01229 | -115.43321 | 18938 ft | 231 kts | 260° |
| 2026-05-08 11:51 | 48.00838 | -115.45580 | 19194 ft | 212 kts | 259° |
| 2026-05-08 11:52 | 48.00498 | -115.47504 | 19445 ft | 172 kts | 260° |
| 2026-05-08 11:52 | 48.00225 | -115.49049 | 19675 ft | 135 kts | 262° |
| 2026-05-08 11:52 | 47.99997 | -115.50354 | 19914 ft | 135 kts | 261° |
| 2026-05-08 11:52 | 47.99752 | -115.51755 | 20204 ft | 146 kts | 261° |
| 2026-05-08 11:53 | 47.99494 | -115.53270 | 20513 ft | 155 kts | 261° |
| 2026-05-08 11:53 | 47.99218 | -115.54888 | 20835 ft | 166 kts | 261° |
| 2026-05-08 11:53 | 47.98918 | -115.56636 | 21156 ft | 179 kts | 261° |
| 2026-05-08 11:53 | 47.98604 | -115.58444 | 21475 ft | 186 kts | 261° |
| 2026-05-08 11:54 | 47.98274 | -115.60358 | 21801 ft | 194 kts | 261° |
| 2026-05-08 11:54 | 47.97924 | -115.62391 | 21951 ft | 211 kts | 261° |
| 2026-05-08 11:54 | 47.97543 | -115.64608 | 21952 ft | 230 kts | 260° |
| 2026-05-08 11:54 | 47.97129 | -115.66988 | 21950 ft | 243 kts | 260° |
| 2026-05-08 11:55 | 47.96690 | -115.69492 | 21950 ft | 253 kts | 260° |
| 2026-05-08 11:55 | 47.96244 | -115.72048 | 21948 ft | 260 kts | 260° |
| 2026-05-08 11:55 | 47.95780 | -115.74688 | 21950 ft | 265 kts | 259° |
| 2026-05-08 11:55 | 47.95307 | -115.77377 | 21953 ft | 269 kts | 259° |
| 2026-05-08 11:56 | 47.94830 | -115.80092 | 21951 ft | 271 kts | 259° |
| 2026-05-08 11:56 | 47.94349 | -115.82825 | 21952 ft | 273 kts | 259° |
| 2026-05-08 11:56 | 47.93870 | -115.85543 | 21954 ft | 275 kts | 259° |
| 2026-05-08 11:56 | 47.93380 | -115.88310 | 21952 ft | 276 kts | 259° |
| 2026-05-08 11:57 | 47.92888 | -115.91080 | 21947 ft | 276 kts | 259° |
| 2026-05-08 11:57 | 47.92400 | -115.93854 | 21965 ft | 277 kts | 259° |
| 2026-05-08 11:57 | 47.91912 | -115.96601 | 21965 ft | 277 kts | 259° |
| 2026-05-08 11:57 | 47.91417 | -115.99380 | 21963 ft | 277 kts | 259° |
| 2026-05-08 11:58 | 47.90923 | -116.02160 | 21969 ft | 277 kts | 259° |
| 2026-05-08 11:58 | 47.90426 | -116.04946 | 21967 ft | 278 kts | 259° |
| 2026-05-08 11:58 | 47.89929 | -116.07728 | 21962 ft | 277 kts | 259° |
| 2026-05-08 11:59 | 47.88939 | -116.13250 | 21958 ft | 277 kts | 259° |
| 2026-05-08 11:59 | 47.88442 | -116.16033 | 21960 ft | 277 kts | 259° |
| 2026-05-08 11:59 | 47.87942 | -116.18819 | 21962 ft | 277 kts | 259° |
| 2026-05-08 11:59 | 47.87441 | -116.21590 | 21962 ft | 277 kts | 259° |
| 2026-05-08 12:00 | 47.86949 | -116.24324 | 21967 ft | 277 kts | 259° |
| 2026-05-08 12:00 | 47.86450 | -116.27087 | 21975 ft | 276 kts | 259° |
| 2026-05-08 12:00 | 47.85950 | -116.29860 | 21976 ft | 276 kts | 259° |
| 2026-05-08 12:00 | 47.85447 | -116.32638 | 21972 ft | 276 kts | 259° |
| 2026-05-08 12:01 | 47.84951 | -116.35369 | 21979 ft | 276 kts | 259° |
| 2026-05-08 12:01 | 47.84447 | -116.38142 | 21974 ft | 276 kts | 259° |
| 2026-05-08 12:01 | 47.83946 | -116.40896 | 21982 ft | 276 kts | 259° |
| 2026-05-08 12:01 | 47.83445 | -116.43651 | 21987 ft | 276 kts | 259° |
| 2026-05-08 12:02 | 47.82942 | -116.46415 | 21986 ft | 277 kts | 259° |
| 2026-05-08 12:02 | 47.82440 | -116.49155 | 21985 ft | 277 kts | 259° |
| 2026-05-08 12:02 | 47.81933 | -116.51927 | 21983 ft | 277 kts | 259° |
| 2026-05-08 12:02 | 47.81426 | -116.54696 | 21987 ft | 277 kts | 259° |
| 2026-05-08 12:03 | 47.80919 | -116.57460 | 22023 ft | 277 kts | 259° |
| 2026-05-08 12:03 | 47.80409 | -116.60232 | 22027 ft | 277 kts | 259° |
| 2026-05-08 12:03 | 47.79898 | -116.63006 | 22030 ft | 278 kts | 259° |
| 2026-05-08 12:03 | 47.79387 | -116.65781 | 22027 ft | 277 kts | 258° |
| 2026-05-08 12:04 | 47.78881 | -116.68516 | 22028 ft | 277 kts | 258° |
| 2026-05-08 12:04 | 47.78369 | -116.71287 | 22029 ft | 277 kts | 258° |
| 2026-05-08 12:04 | 47.77857 | -116.74050 | 22025 ft | 277 kts | 258° |
| 2026-05-08 12:04 | 47.77344 | -116.76824 | 22026 ft | 277 kts | 258° |
| 2026-05-08 12:05 | 47.76831 | -116.79582 | 22028 ft | 277 kts | 258° |
| 2026-05-08 12:05 | 47.76315 | -116.82355 | 22026 ft | 277 kts | 258° |
| 2026-05-08 12:05 | 47.75807 | -116.85079 | 22027 ft | 277 kts | 258° |
| 2026-05-08 12:05 | 47.75293 | -116.87838 | 22030 ft | 277 kts | 258° |
| 2026-05-08 12:06 | 47.74775 | -116.90609 | 22030 ft | 277 kts | 258° |
| 2026-05-08 12:06 | 47.74259 | -116.93367 | 22030 ft | 277 kts | 258° |
| 2026-05-08 12:06 | 47.73742 | -116.96133 | 22030 ft | 277 kts | 258° |
| 2026-05-08 12:06 | 47.73223 | -116.98892 | 22028 ft | 277 kts | 258° |
| 2026-05-08 12:07 | 47.72711 | -117.01617 | 22027 ft | 277 kts | 258° |
| 2026-05-08 12:07 | 47.72193 | -117.04370 | 22019 ft | 277 kts | 258° |
| 2026-05-08 12:07 | 47.71673 | -117.07126 | 22023 ft | 277 kts | 258° |
| 2026-05-08 12:07 | 47.71151 | -117.09891 | 22021 ft | 277 kts | 258° |
| 2026-05-08 12:08 | 47.70629 | -117.12651 | 22020 ft | 277 kts | 258° |
| 2026-05-08 12:08 | 47.70114 | -117.15375 | 22019 ft | 277 kts | 258° |
| 2026-05-08 12:08 | 47.69590 | -117.18134 | 22019 ft | 277 kts | 258° |
| 2026-05-08 12:08 | 47.69067 | -117.20893 | 22018 ft | 277 kts | 258° |
| 2026-05-08 12:09 | 47.68543 | -117.23645 | 22017 ft | 277 kts | 258° |
| 2026-05-08 12:09 | 47.68026 | -117.26364 | 22017 ft | 277 kts | 258° |
| 2026-05-08 12:09 | 47.67498 | -117.29130 | 22018 ft | 277 kts | 258° |
| 2026-05-08 12:09 | 47.66971 | -117.31888 | 22009 ft | 278 kts | 258° |
| 2026-05-08 12:10 | 47.66441 | -117.34677 | 21818 ft | 283 kts | 258° |
| 2026-05-08 12:10 | 47.65908 | -117.37463 | 21767 ft | 282 kts | 258° |
| 2026-05-08 12:10 | 47.65365 | -117.40277 | 21717 ft | 282 kts | 258° |
| 2026-05-08 12:10 | 47.64827 | -117.43081 | 21672 ft | 282 kts | 258° |
| 2026-05-08 12:11 | 47.64289 | -117.45878 | 21608 ft | 282 kts | 257° |
| 2026-05-08 12:11 | 47.63755 | -117.48654 | 21557 ft | 282 kts | 257° |
| 2026-05-08 12:11 | 47.63216 | -117.51444 | 21506 ft | 281 kts | 257° |
| 2026-05-08 12:11 | 47.62676 | -117.54232 | 21458 ft | 271 kts | 258° |
| 2026-05-08 12:12 | 47.62183 | -117.56770 | 20684 ft | 253 kts | 257° |
| 2026-05-08 12:12 | 47.61689 | -117.59340 | 19515 ft | 263 kts | 257° |
| 2026-05-08 12:12 | 47.61185 | -117.61978 | 18357 ft | 267 kts | 257° |
| 2026-05-08 12:12 | 47.60670 | -117.64629 | 17074 ft | 268 kts | 256° |
| 2026-05-08 12:13 | 47.60160 | -117.67244 | 15852 ft | 268 kts | 256° |
| 2026-05-08 12:13 | 47.59787 | -117.69947 | 14677 ft | 266 kts | 270° |
| 2026-05-08 12:13 | 47.60246 | -117.72570 | 13525 ft | 266 kts | 298° |
| 2026-05-08 12:13 | 47.61528 | -117.74549 | 12272 ft | 270 kts | 327° |
| 2026-05-08 12:14 | 47.63318 | -117.75387 | 11080 ft | 274 kts | 356° |
| 2026-05-08 12:14 | 47.65183 | -117.75104 | 9936 ft | 273 kts | 12° |
| 2026-05-08 12:14 | 47.67017 | -117.74360 | 8684 ft | 272 kts | 26° |
| 2026-05-08 12:14 | 47.68533 | -117.72730 | 7474 ft | 268 kts | 43° |
| 2026-05-08 12:15 | 47.69864 | -117.70831 | 6566 ft | 253 kts | 45° |
| 2026-05-08 12:15 | 47.70985 | -117.69207 | 6495 ft | 203 kts | 45° |
| 2026-05-08 12:15 | 47.71906 | -117.67882 | 6487 ft | 170 kts | 45° |
| 2026-05-08 12:15 | 47.72715 | -117.66635 | 6182 ft | 172 kts | 53° |
| 2026-05-08 12:16 | 47.73265 | -117.65009 | 5908 ft | 181 kts | 72° |
| 2026-05-08 12:16 | 47.73677 | -117.63273 | 5495 ft | 169 kts | 76° |
| 2026-05-08 12:16 | 47.73735 | -117.61599 | 5283 ft | 177 kts | 104° |
| 2026-05-08 12:16 | 47.73260 | -117.59970 | 5332 ft | 164 kts | 122° |
| 2026-05-08 12:17 | 47.72662 | -117.58572 | 5246 ft | 157 kts | 129° |
| 2026-05-08 12:17 | 47.72027 | -117.57293 | 4940 ft | 155 kts | 133° |
| 2026-05-08 12:17 | 47.71228 | -117.56167 | 4459 ft | 157 kts | 148° |
| 2026-05-08 12:17 | 47.70714 | -117.55406 | 4175 ft | 159 kts | 132° |
| 2026-05-08 12:18 | 47.70087 | -117.54129 | 3975 ft | 148 kts | 135° |
| 2026-05-08 12:18 | 47.69017 | -117.52731 | 3627 ft | 169 kts | 145° |
| 2026-05-08 12:18 | 47.68372 | -117.51980 | 3491 ft | 180 kts | 148° |
| 2026-05-08 12:18 | 47.67400 | -117.50981 | 3264 ft | 156 kts | 152° |
| 2026-05-08 12:19 | 47.66311 | -117.50159 | 3141 ft | 120 kts | 162° |
| 2026-05-08 12:19 | 47.65782 | -117.49928 | 3034 ft | 118 kts | 168° |
| 2026-05-08 12:19 | 47.64972 | -117.49883 | 2930 ft | 117 kts | 185° |
| 2026-05-08 12:19 | 47.64206 | -117.50259 | 2747 ft | 116 kts | 212° |
| 2026-05-08 12:20 | 47.63637 | -117.51068 | 2611 ft | 111 kts | 223° |
| 2026-05-08 12:20 | 47.63106 | -117.51855 | 2428 ft | 105 kts | 222° |
| 2026-05-08 12:20 | 47.62639 | -117.52534 | 2383 ft | 77 kts | 219° |
| 2026-05-08 12:20 | 47.62444 | -117.52840 | 2385 ft | 10 kts | 229° |
| 2026-05-08 12:21 | 47.62379 | -117.52933 | 2386 ft | 20 kts | 219° |
| 2026-05-08 12:21 | 47.62269 | -117.53086 | 2385 ft | 12 kts | 238° |
| 2026-05-08 12:21 | 47.62268 | -117.53089 | 2385 ft | 1 kts | 242° |